Home   Weather   Saudi Arabia   Medina   Past weeks
Flag for Saudi Arabia

Past Weather in Medina, Saudi Arabia — Yesterday and Last 2 Weeks

Currently: 97 °F. Clear. (Weather station: Madinah, Saudi Arabia). See more current weather

Past Weather in Medina — Graph

°F

Medina Temperature Yesterday

Maximum temperature yesterday: 108 °F (at 3:00 pm)
Minimum temperature yesterday: 84 °F (at 6:00 am)
Average temperature yesterday: 97 °F

High & Low Weather Summary for the Past Weeks

 TemperatureHumidityPressure
High115 °F (Jul 20, 4:00 pm)46% (Jul 22, 7:00 am)29.92 "Hg (Jul 22, 7:00 am)
Low84 °F (Aug 1, 5:00 am)3% (Jul 30, 1:00 pm)29.65 "Hg (Jul 20, 4:00 pm)
Average100 °F15%29.75 "Hg
* Reported Jul 19 11:00 pm — Aug 3 11:00 pm, Medina. Weather by CustomWeather, © 2021

Note: Actual official high and low records may vary slightly from our data, if they occured in-between our weather recording intervals... More about our weather records

Medina Weather History for the Previous 24 Hours

Scroll right to see more
 ConditionsComfort  
Time TempWeatherWind HumidityBarometerVisibility
11:00 pm
Tue, Aug 3
97 °FClear.9 mph20%29.92 "Hg10 mi
10:00 pm97 °FClear.12 mph20%29.89 "Hg10 mi
9:00 pm99 °FClear.15 mph19%29.86 "Hg10 mi
8:00 pm99 °FClear.15 mph18%29.83 "Hg10 mi
7:00 pm100 °FSunny.14 mph15%29.83 "Hg10 mi
6:00 pm104 °FSunny.9 mph9%29.80 "Hg10 mi
5:00 pm104 °FSunny.10 mph8%29.80 "Hg10 mi
4:00 pm106 °FSunny.12 mph8%29.80 "Hg10 mi
3:00 pm108 °FSunny.16 mph7%29.83 "Hg10 mi
2:00 pm106 °FSunny.14 mph8%29.83 "Hg10 mi
1:00 pm102 °FSunny.13 mph9%29.86 "Hg10 mi
12:00 pm102 °FSunny.14 mph9%29.86 "Hg10 mi
11:00 am99 °FSunny.16 mph12%29.89 "Hg10 mi
10:00 am97 °FSunny.14 mph13%29.92 "Hg10 mi
9:00 am95 °FSunny.9 mph12%29.89 "Hg10 mi
8:00 am90 °FSunny.3 mph15%29.89 "Hg10 mi
7:00 am86 °FSunny.5 mph17%29.89 "Hg10 mi
6:00 am84 °FSunny.3 mph19%29.86 "Hg10 mi
5:00 am86 °FClear.5 mph18%29.83 "Hg10 mi
4:00 am88 °FClear.5 mph18%29.83 "Hg10 mi
3:00 am93 °FClear.8 mph12%29.80 "Hg10 mi
2:00 am93 °FClear.15 mph13%29.80 "Hg10 mi
1:00 am95 °FClear.12 mph13%29.80 "Hg10 mi
12:00 am95 °FClear.13 mph15%29.83 "Hg10 mi
Weather by CustomWeather, © 2021

See weather overview